sensor_id;sensor_type;location;lat;lon;timestamp;temperature;humidity
36352;DHT22;22382;44.768;17.206;2022-10-03T08:48:56;17.80;94.70
36352;DHT22;22382;44.768;17.206;2022-10-03T09:00:27;17.70;97.00
36352;DHT22;22382;44.768;17.206;2022-10-03T09:12:10;18.20;92.40
36352;DHT22;22382;44.768;17.206;2022-10-03T09:26:15;18.80;99.00
36352;DHT22;22382;44.768;17.206;2022-10-03T09:45:14;19.20;85.50
36352;DHT22;22382;44.768;17.206;2022-10-03T10:01:39;20.90;76.60
36352;DHT22;22382;44.768;17.206;2022-10-03T10:24:01;19.80;79.80
36352;DHT22;22382;44.768;17.206;2022-10-03T10:27:01;20.00;74.50
36352;DHT22;22382;44.768;17.206;2022-10-03T10:40:31;19.60;84.10
36352;DHT22;22382;44.768;17.206;2022-10-03T11:36:57;20.10;76.70
36352;DHT22;22382;44.768;17.206;2022-10-03T11:39:41;19.60;78.10
36352;DHT22;22382;44.768;17.206;2022-10-03T11:45:40;19.90;73.10
36352;DHT22;22382;44.768;17.206;2022-10-03T11:51:15;19.60;63.90
36352;DHT22;22382;44.768;17.206;2022-10-03T11:53:59;19.50;63.70
36352;DHT22;22382;44.768;17.206;2022-10-03T11:57:08;19.60;67.30
36352;DHT22;22382;44.768;17.206;2022-10-03T12:05:25;19.80;62.80
36352;DHT22;22382;44.768;17.206;2022-10-03T12:08:10;20.20;68.80
36352;DHT22;22382;44.768;17.206;2022-10-03T12:11:09;20.60;64.20
36352;DHT22;22382;44.768;17.206;2022-10-03T12:17:00;19.90;62.10
36352;DHT22;22382;44.768;17.206;2022-10-03T12:22:42;20.10;62.70
36352;DHT22;22382;44.768;17.206;2022-10-03T12:25:17;20.60;60.20
36352;DHT22;22382;44.768;17.206;2022-10-03T12:30:22;20.20;62.10
36352;DHT22;22382;44.768;17.206;2022-10-03T12:35:50;19.90;67.70
36352;DHT22;22382;44.768;17.206;2022-10-03T13:01:14;19.70;65.10
36352;DHT22;22382;44.768;17.206;2022-10-03T13:03:52;19.80;66.70
36352;DHT22;22382;44.768;17.206;2022-10-03T13:17:26;20.30;61.80
36352;DHT22;22382;44.768;17.206;2022-10-03T13:20:01;20.30;62.50
36352;DHT22;22382;44.768;17.206;2022-10-03T13:22:51;20.40;61.20
36352;DHT22;22382;44.768;17.206;2022-10-03T13:25:27;20.60;61.90
36352;DHT22;22382;44.768;17.206;2022-10-03T13:30:46;20.70;59.70
36352;DHT22;22382;44.768;17.206;2022-10-03T13:33:21;20.50;58.50
36352;DHT22;22382;44.768;17.206;2022-10-03T13:41:22;20.70;60.50
36352;DHT22;22382;44.768;17.206;2022-10-03T13:44:05;21.00;60.10
36352;DHT22;22382;44.768;17.206;2022-10-03T13:49:42;21.00;60.10
36352;DHT22;22382;44.768;17.206;2022-10-03T13:57:39;20.50;57.90
36352;DHT22;22382;44.768;17.206;2022-10-03T14:00:11;20.30;58.30
36352;DHT22;22382;44.768;17.206;2022-10-03T14:06:17;20.20;61.10
36352;DHT22;22382;44.768;17.206;2022-10-03T14:11:21;19.90;60.90
36352;DHT22;22382;44.768;17.206;2022-10-03T14:41:21;19.10;60.30
36352;DHT22;22382;44.768;17.206;2022-10-03T14:44:09;19.20;59.90
36352;DHT22;22382;44.768;17.206;2022-10-03T14:47:08;19.10;59.20
36352;DHT22;22382;44.768;17.206;2022-10-03T14:49:34;19.10;57.90
36352;DHT22;22382;44.768;17.206;2022-10-03T14:52:42;19.00;59.60
36352;DHT22;22382;44.768;17.206;2022-10-03T14:55:23;18.90;60.40
36352;DHT22;22382;44.768;17.206;2022-10-03T14:58:02;19.00;62.30
36352;DHT22;22382;44.768;17.206;2022-10-03T15:00:40;19.10;61.40
36352;DHT22;22382;44.768;17.206;2022-10-03T15:03:18;19.10;61.70
36352;DHT22;22382;44.768;17.206;2022-10-03T15:07:04;19.00;61.40
36352;DHT22;22382;44.768;17.206;2022-10-03T15:09:22;18.90;62.00
36352;DHT22;22382;44.768;17.206;2022-10-03T15:12:09;19.00;62.30
36352;DHT22;22382;44.768;17.206;2022-10-03T15:14:42;18.90;62.60
36352;DHT22;22382;44.768;17.206;2022-10-03T15:17:20;18.90;63.20
36352;DHT22;22382;44.768;17.206;2022-10-03T15:19:51;18.80;63.30
36352;DHT22;22382;44.768;17.206;2022-10-03T15:22:34;18.70;64.20
36352;DHT22;22382;44.768;17.206;2022-10-03T15:25:25;18.60;64.70
36352;DHT22;22382;44.768;17.206;2022-10-03T15:27:55;18.70;65.20
36352;DHT22;22382;44.768;17.206;2022-10-03T15:30:26;18.70;65.20
36352;DHT22;22382;44.768;17.206;2022-10-03T15:35:35;18.60;66.80
36352;DHT22;22382;44.768;17.206;2022-10-03T15:38:33;18.60;68.50
36352;DHT22;22382;44.768;17.206;2022-10-03T15:43:54;18.50;69.00
36352;DHT22;22382;44.768;17.206;2022-10-03T15:49:25;18.40;70.00
36352;DHT22;22382;44.768;17.206;2022-10-03T15:51:54;18.40;69.60
36352;DHT22;22382;44.768;17.206;2022-10-03T15:54:26;18.20;71.40
36352;DHT22;22382;44.768;17.206;2022-10-03T15:56:58;18.20;71.20
36352;DHT22;22382;44.768;17.206;2022-10-03T15:59:30;18.10;72.20
36352;DHT22;22382;44.768;17.206;2022-10-03T16:02:08;18.00;74.30
36352;DHT22;22382;44.768;17.206;2022-10-03T16:04:39;17.90;72.20
36352;DHT22;22382;44.768;17.206;2022-10-03T16:07:33;17.80;74.90
36352;DHT22;22382;44.768;17.206;2022-10-03T16:10:24;17.80;80.00
36352;DHT22;22382;44.768;17.206;2022-10-03T16:12:58;17.70;91.80
36352;DHT22;22382;44.768;17.206;2022-10-03T16:15:37;17.40;92.90
36352;DHT22;22382;44.768;17.206;2022-10-03T16:20:53;17.00;97.80
36352;DHT22;22382;44.768;17.206;2022-10-03T16:26:04;16.60;99.90
36352;DHT22;22382;44.768;17.206;2022-10-03T16:28:37;16.40;99.90
36352;DHT22;22382;44.768;17.206;2022-10-03T16:31:15;16.20;99.90
36352;DHT22;22382;44.768;17.206;2022-10-03T16:34:06;16.00;99.90
36352;DHT22;22382;44.768;17.206;2022-10-03T16:36:48;15.90;99.90
36352;DHT22;22382;44.768;17.206;2022-10-03T16:39:35;15.80;99.90
36352;DHT22;22382;44.768;17.206;2022-10-03T16:42:16;15.60;99.90
36352;DHT22;22382;44.768;17.206;2022-10-03T16:44:51;15.50;99.90
36352;DHT22;22382;44.768;17.206;2022-10-03T16:47:28;15.40;99.90
36352;DHT22;22382;44.768;17.206;2022-10-03T16:49:57;15.30;99.90
36352;DHT22;22382;44.768;17.206;2022-10-03T16:52:47;15.20;99.90
36352;DHT22;22382;44.768;17.206;2022-10-03T16:55:21;15.10;99.90
36352;DHT22;22382;44.768;17.206;2022-10-03T16:57:57;15.00;99.90
36352;DHT22;22382;44.768;17.206;2022-10-03T17:00:27;14.90;99.90
36352;DHT22;22382;44.768;17.206;2022-10-03T17:02:56;14.80;99.90
36352;DHT22;22382;44.768;17.206;2022-10-03T17:05:23;14.70;99.90
36352;DHT22;22382;44.768;17.206;2022-10-03T17:07:53;14.60;99.90
36352;DHT22;22382;44.768;17.206;2022-10-03T17:10:44;14.50;99.90
36352;DHT22;22382;44.768;17.206;2022-10-03T17:13:20;14.50;99.90
36352;DHT22;22382;44.768;17.206;2022-10-03T17:15:55;14.40;99.90
36352;DHT22;22382;44.768;17.206;2022-10-03T17:18:40;14.30;99.90
36352;DHT22;22382;44.768;17.206;2022-10-03T17:21:21;14.20;99.90
36352;DHT22;22382;44.768;17.206;2022-10-03T17:26:40;14.10;99.90
36352;DHT22;22382;44.768;17.206;2022-10-03T17:29:17;14.00;99.90
36352;DHT22;22382;44.768;17.206;2022-10-03T17:34:39;13.80;99.90
36352;DHT22;22382;44.768;17.206;2022-10-03T17:40:30;13.70;99.90
36352;DHT22;22382;44.768;17.206;2022-10-03T17:43:08;13.70;99.90
36352;DHT22;22382;44.768;17.206;2022-10-03T17:48:22;13.70;99.90
36352;DHT22;22382;44.768;17.206;2022-10-03T17:51:24;13.60;99.90
36352;DHT22;22382;44.768;17.206;2022-10-03T17:53:54;13.60;99.90
36352;DHT22;22382;44.768;17.206;2022-10-03T17:56:25;13.50;99.90
36352;DHT22;22382;44.768;17.206;2022-10-03T17:58:59;13.40;99.90
36352;DHT22;22382;44.768;17.206;2022-10-03T18:01:38;13.40;99.90
36352;DHT22;22382;44.768;17.206;2022-10-03T18:04:18;13.40;99.90
36352;DHT22;22382;44.768;17.206;2022-10-03T18:06:52;13.30;99.90
36352;DHT22;22382;44.768;17.206;2022-10-03T18:09:28;13.30;99.90
36352;DHT22;22382;44.768;17.206;2022-10-03T18:12:08;13.20;99.90
36352;DHT22;22382;44.768;17.206;2022-10-03T18:14:49;13.20;99.90
36352;DHT22;22382;44.768;17.206;2022-10-03T18:21:01;13.10;99.90
36352;DHT22;22382;44.768;17.206;2022-10-03T18:23:39;13.10;99.90
36352;DHT22;22382;44.768;17.206;2022-10-03T18:26:40;13.00;99.90
36352;DHT22;22382;44.768;17.206;2022-10-03T18:31:44;13.00;99.90
36352;DHT22;22382;44.768;17.206;2022-10-03T18:34:21;13.00;99.90
36352;DHT22;22382;44.768;17.206;2022-10-03T18:36:52;12.90;99.90
36352;DHT22;22382;44.768;17.206;2022-10-03T18:39:26;12.90;99.90
36352;DHT22;22382;44.768;17.206;2022-10-03T18:41:57;12.80;99.90
36352;DHT22;22382;44.768;17.206;2022-10-03T18:44:28;12.70;99.90
36352;DHT22;22382;44.768;17.206;2022-10-03T18:50:31;12.70;99.90
36352;DHT22;22382;44.768;17.206;2022-10-03T18:53:08;12.60;99.90
36352;DHT22;22382;44.768;17.206;2022-10-03T18:55:49;12.50;99.90
36352;DHT22;22382;44.768;17.206;2022-10-03T19:03:35;12.50;99.90
36352;DHT22;22382;44.768;17.206;2022-10-03T19:09:19;12.40;99.90
36352;DHT22;22382;44.768;17.206;2022-10-03T19:12:16;12.40;99.90
36352;DHT22;22382;44.768;17.206;2022-10-03T19:17:40;12.40;99.90
36352;DHT22;22382;44.768;17.206;2022-10-03T19:20:26;12.40;99.90
36352;DHT22;22382;44.768;17.206;2022-10-03T19:22:57;12.50;99.90
36352;DHT22;22382;44.768;17.206;2022-10-03T19:25:25;12.50;99.90
36352;DHT22;22382;44.768;17.206;2022-10-03T19:27:58;12.40;99.90
36352;DHT22;22382;44.768;17.206;2022-10-03T19:30:28;12.40;99.90
36352;DHT22;22382;44.768;17.206;2022-10-03T19:32:59;12.40;99.90
36352;DHT22;22382;44.768;17.206;2022-10-03T19:35:29;12.30;99.90
36352;DHT22;22382;44.768;17.206;2022-10-03T19:38:31;12.20;99.90
36352;DHT22;22382;44.768;17.206;2022-10-03T19:43:37;12.20;99.90
36352;DHT22;22382;44.768;17.206;2022-10-03T19:46:08;12.20;99.90
36352;DHT22;22382;44.768;17.206;2022-10-03T19:49:00;12.10;99.90
36352;DHT22;22382;44.768;17.206;2022-10-03T19:51:28;12.10;99.90
36352;DHT22;22382;44.768;17.206;2022-10-03T19:53:56;12.00;99.90
36352;DHT22;22382;44.768;17.206;2022-10-03T19:56:25;12.00;99.90
36352;DHT22;22382;44.768;17.206;2022-10-03T20:01:41;11.90;99.90
36352;DHT22;22382;44.768;17.206;2022-10-03T20:04:11;11.80;99.90
36352;DHT22;22382;44.768;17.206;2022-10-03T20:06:45;11.70;99.90
36352;DHT22;22382;44.768;17.206;2022-10-03T20:09:25;11.60;99.90
36352;DHT22;22382;44.768;17.206;2022-10-03T20:14:25;11.50;99.90
36352;DHT22;22382;44.768;17.206;2022-10-03T20:17:04;11.40;99.90
36352;DHT22;22382;44.768;17.206;2022-10-03T20:19:54;11.40;99.90
36352;DHT22;22382;44.768;17.206;2022-10-03T20:22:31;11.30;99.90
36352;DHT22;22382;44.768;17.206;2022-10-03T20:25:00;11.30;99.90
36352;DHT22;22382;44.768;17.206;2022-10-03T20:27:40;11.40;99.90
36352;DHT22;22382;44.768;17.206;2022-10-03T20:30:44;11.40;99.90
36352;DHT22;22382;44.768;17.206;2022-10-03T20:33:27;11.40;99.90
36352;DHT22;22382;44.768;17.206;2022-10-03T20:41:52;11.50;99.90
36352;DHT22;22382;44.768;17.206;2022-10-03T20:48:17;11.50;99.90
36352;DHT22;22382;44.768;17.206;2022-10-03T20:50:57;11.40;99.90
36352;DHT22;22382;44.768;17.206;2022-10-03T20:53:27;11.40;99.90
36352;DHT22;22382;44.768;17.206;2022-10-03T20:56:06;11.40;99.90
36352;DHT22;22382;44.768;17.206;2022-10-03T21:01:15;11.30;99.90
36352;DHT22;22382;44.768;17.206;2022-10-03T21:07:05;11.20;99.90
36352;DHT22;22382;44.768;17.206;2022-10-03T21:09:48;11.10;99.90
36352;DHT22;22382;44.768;17.206;2022-10-03T21:12:25;11.10;99.90
36352;DHT22;22382;44.768;17.206;2022-10-03T21:15:09;11.10;99.90
36352;DHT22;22382;44.768;17.206;2022-10-03T21:17:37;11.10;99.90
36352;DHT22;22382;44.768;17.206;2022-10-03T21:20:09;11.20;99.90
36352;DHT22;22382;44.768;17.206;2022-10-03T21:22:40;11.20;99.90
36352;DHT22;22382;44.768;17.206;2022-10-03T21:25:29;11.20;99.90
36352;DHT22;22382;44.768;17.206;2022-10-03T21:27:57;11.30;99.90
36352;DHT22;22382;44.768;17.206;2022-10-03T21:33:19;11.20;99.90
36352;DHT22;22382;44.768;17.206;2022-10-03T21:35:52;11.20;99.90
36352;DHT22;22382;44.768;17.206;2022-10-03T21:38:31;11.20;99.90
36352;DHT22;22382;44.768;17.206;2022-10-03T21:52:28;11.20;99.90
36352;DHT22;22382;44.768;17.206;2022-10-03T22:00:26;11.10;99.90
36352;DHT22;22382;44.768;17.206;2022-10-03T22:05:48;11.00;99.90
36352;DHT22;22382;44.768;17.206;2022-10-03T22:08:27;10.90;99.90
36352;DHT22;22382;44.768;17.206;2022-10-03T22:11:12;10.90;99.90
36352;DHT22;22382;44.768;17.206;2022-10-03T22:13:58;10.70;99.90
36352;DHT22;22382;44.768;17.206;2022-10-03T22:19:19;10.70;99.90
36352;DHT22;22382;44.768;17.206;2022-10-03T22:27:36;10.50;99.90
36352;DHT22;22382;44.768;17.206;2022-10-03T22:30:14;10.50;99.90
36352;DHT22;22382;44.768;17.206;2022-10-03T22:35:50;10.40;99.90
36352;DHT22;22382;44.768;17.206;2022-10-03T22:38:22;10.40;99.90
36352;DHT22;22382;44.768;17.206;2022-10-03T22:40:50;10.40;99.90
36352;DHT22;22382;44.768;17.206;2022-10-03T22:43:18;10.30;99.90
36352;DHT22;22382;44.768;17.206;2022-10-03T22:45:48;10.20;99.90
36352;DHT22;22382;44.768;17.206;2022-10-03T22:48:24;10.20;99.90
36352;DHT22;22382;44.768;17.206;2022-10-03T22:50:52;10.20;99.90
36352;DHT22;22382;44.768;17.206;2022-10-03T22:53:24;10.10;99.90
36352;DHT22;22382;44.768;17.206;2022-10-03T22:55:54;10.10;99.90
36352;DHT22;22382;44.768;17.206;2022-10-03T22:58:23;10.00;99.90
36352;DHT22;22382;44.768;17.206;2022-10-03T23:00:53;10.10;99.90
36352;DHT22;22382;44.768;17.206;2022-10-03T23:03:26;10.00;99.90
36352;DHT22;22382;44.768;17.206;2022-10-03T23:11:58;10.00;99.90
36352;DHT22;22382;44.768;17.206;2022-10-03T23:14:35;10.00;99.90
36352;DHT22;22382;44.768;17.206;2022-10-03T23:22:42;10.00;99.90
36352;DHT22;22382;44.768;17.206;2022-10-03T23:30:43;10.00;99.90
36352;DHT22;22382;44.768;17.206;2022-10-03T23:33:46;10.00;99.90
36352;DHT22;22382;44.768;17.206;2022-10-03T23:36:17;10.10;99.90
36352;DHT22;22382;44.768;17.206;2022-10-03T23:41:13;10.00;99.90
36352;DHT22;22382;44.768;17.206;2022-10-03T23:46:16;10.00;99.90
36352;DHT22;22382;44.768;17.206;2022-10-03T23:48:58;10.10;99.90
36352;DHT22;22382;44.768;17.206;2022-10-03T23:51:32;10.10;99.90
36352;DHT22;22382;44.768;17.206;2022-10-03T23:54:03;10.20;99.90
36352;DHT22;22382;44.768;17.206;2022-10-03T23:56:43;10.20;99.90
